Data for 01/15/2017

Time Sea-Level Adjusted Pressure Absolute Pressure Temperature Relative Humidity Dew Point   
(mb) (inHg) (mb) (inHg) (C) (F) (%) (C) (F)
00:05 1024 30.24 854 25.22 -11.1 12.1 67 -16 3.1
00:10 1024 30.24 854 25.22 -11.1 12 67 -16 3.2
00:15 1024 30.24 854 25.22 -11.1 12 68 -15.9 3.4
00:20 1024 30.24 854 25.22 -11 12.3 67 -16 3.3
00:25 1024 30.24 854 25.22 -10.9 12.3 67 -15.9 3.4
00:30 1024 30.24 854 25.22 -11.1 12.1 68 -15.9 3.4
00:35 1024 30.24 854 25.22 -11.5 11.3 68 -16.2 2.8
00:40 1024 30.24 854 25.22 -11.8 10.8 71 -16.1 3.1
00:45 1024 30.24 853 25.19 -11.3 11.6 69 -15.9 3.4
00:50 1024 30.24 854 25.22 -11.1 12.1 69 -15.7 3.7
00:55 1024 30.24 853 25.19 -10.5 13 66 -15.7 3.8
01:00 1024 30.24 853 25.19 -10.3 13.4 65 -15.7 3.8
01:05 1024 30.24 853 25.19 -11.1 12.1 70 -15.6 4
01:10 1024 30.24 853 25.19 -10.9 12.4 67 -15.9 3.3
01:15 1024 30.24 853 25.19 -10.7 12.7 67 -15.7 3.7
01:20 1024 30.24 853 25.19 -10.6 12.9 67 -15.6 3.8
01:25 1024 30.24 853 25.19 -10.7 12.7 67 -15.7 3.8
01:30 1024 30.24 853 25.19 -10.2 13.6 66 -15.5 4.2
01:35 1024 30.24 853 25.19 -10.1 13.8 66 -15.4 4.4
01:40 1024 30.24 853 25.19 -10.7 12.7 69 -15.3 4.5
01:45 1024 30.24 853 25.19 -10.7 12.7 67 -15.6 3.9
01:50 1024 30.24 853 25.19 -10.5 13.2 67 -15.4 4.2
01:55 1024 30.24 853 25.19 -10.2 13.7 66 -15.4 4.3
02:00 1024 30.24 853 25.19 -10.6 12.9 67 -15.6 3.9
02:05 1024 30.24 853 25.19 -10.9 12.4 68 -15.7 3.7
02:10 1024 30.24 853 25.19 -10.8 12.6 70 -15.3 4.4
02:15 1024 30.24 853 25.19 -10.6 12.8 70 -15.2 4.7
02:20 1024 30.24 853 25.19 -10.5 13.1 69 -15.2 4.7
02:25 1024 30.24 853 25.19 -10.4 13.4 68 -15.2 4.7
02:30 1024 30.24 853 25.19 -10.4 13.4 67 -15.4 4.4
02:35 1024 30.24 853 25.19 -10.3 13.5 68 -15.1 4.8
02:40 1024 30.24 853 25.19 -10.6 12.9 67 -15.6 3.9
02:45 1024 30.24 853 25.19 -11 12.2 67 -16 3.2
02:50 1024 30.24 853 25.19 -11.3 11.7 69 -15.9 3.3
02:55 1024 30.24 853 25.19 -11.6 11.1 70 -16.1 3
03:00 1024 30.24 853 25.19 -11.6 11.1 69 -16.1 3
03:05 1024 30.24 853 25.19 -11.4 11.6 68 -16.1 3
03:10 1024 30.24 853 25.19 -11.4 11.4 69 -16.1 3.1
03:15 1024 30.24 853 25.19 -11.4 11.4 69 -16.1 3
03:20 1024 30.24 853 25.19 -11.3 11.7 69 -16 3.3
03:25 1024 30.24 853 25.19 -10.9 12.3 67 -15.9 3.4
03:30 1024 30.24 853 25.19 -10.8 12.7 67 -15.7 3.7
03:35 1024 30.24 853 25.19 -10.6 12.9 67 -15.7 3.7
03:40 1024 30.24 853 25.19 -10.4 13.3 66 -15.7 3.8
03:45 1024 30.24 853 25.19 -10.2 13.7 65 -15.6 3.9
03:50 1024 30.24 853 25.19 -10.2 13.7 67 -15.2 4.7
03:55 1024 30.24 853 25.19 -10.4 13.2 68 -15.2 4.6
04:00 1024 30.24 853 25.19 -10.3 13.4 70 -14.8 5.4
04:05 1024 30.24 853 25.19 -10.4 13.4 67 -15.4 4.2
04:10 1024 30.24 853 25.19 -10.4 13.2 67 -15.5 4.1
04:15 1024 30.24 853 25.19 -10.5 13.1 67 -15.6 3.9
04:20 1024 30.24 853 25.19 -10.4 13.2 67 -15.5 4.1
04:25 1024 30.24 853 25.19 -10 14 66 -15.2 4.6
04:30 1024 30.24 853 25.19 -10.3 13.4 67 -15.4 4.3
04:35 1023 30.21 853 25.19 -10.1 13.8 63 -15.9 3.5
04:40 1023 30.21 853 25.19 -10.6 12.9 65 -15.9 3.4
04:45 1023 30.21 853 25.19 -11.6 11.2 68 -16.3 2.7
04:50 1023 30.21 853 25.19 -12.2 10 71 -16.5 2.3
04:55 1023 30.21 852 25.16 -12.1 10.1 71 -16.4 2.6
05:00 1023 30.21 852 25.16 -12 10.5 71 -16.3 2.7
05:05 1023 30.21 852 25.16 -11.8 10.8 70 -16.3 2.7
05:10 1023 30.21 852 25.16 -11.6 11.1 70 -16.1 3
05:15 1023 30.21 852 25.16 -11.3 11.6 68 -16.1 3.1
05:20 1023 30.21 852 25.16 -11.5 11.3 69 -16.1 3
05:25 1023 30.21 852 25.16 -11.5 11.2 69 -16.2 2.9
05:30 1023 30.21 852 25.16 -11.3 11.6 69 -16 3.2
05:35 1023 30.21 852 25.16 -11 12.2 69 -15.7 3.8
05:40 1023 30.21 852 25.16 -10.5 13.1 67 -15.6 4
05:45 1023 30.21 852 25.16 -10.3 13.4 66 -15.5 4.1
05:50 1023 30.21 852 25.16 -10.9 12.3 68 -15.8 3.6
05:55 1023 30.21 852 25.16 -11.2 11.8 68 -15.9 3.3
06:00 1023 30.21 852 25.16 -11.1 12.1 68 -15.9 3.4
06:05 1023 30.21 852 25.16 -11.1 12 67 -16.1 3
06:10 1023 30.21 852 25.16 -11.4 11.4 69 -16.1 3
06:15 1023 30.21 852 25.16 -11.6 11.2 69 -16.2 2.9
06:20 1023 30.21 852 25.16 -11.6 11.1 69 -16.2 2.8
06:25 1023 30.21 852 25.16 -11.7 11 69 -16.2 2.8
06:30 1023 30.21 852 25.16 -11.6 11.1 69 -16.3 2.7
06:35 1023 30.21 852 25.16 -11.5 11.3 69 -16.1 3.1
06:40 1023 30.21 852 25.16 -11.7 10.9 69 -16.2 2.8
06:45 1023 30.21 852 25.16 -12.1 10.3 71 -16.4 2.6
06:50 1023 30.21 852 25.16 -12.1 10.2 71 -16.4 2.5
06:55 1023 30.21 852 25.16 -12.1 10.1 71 -16.5 2.4
07:00 1023 30.21 852 25.16 -11.9 10.6 70 -16.3 2.7
07:05 1023 30.21 852 25.16 -11.6 11.2 69 -16.2 2.8
07:10 1023 30.21 852 25.16 -11.4 11.5 68 -16.2 2.9
07:15 1023 30.21 852 25.16 -11.6 11.2 68 -16.4 2.4
07:20 1023 30.21 852 25.16 -11.8 10.8 68 -16.5 2.3
07:25 1023 30.21 852 25.16 -11.8 10.9 68 -16.6 2.2
07:30 1023 30.21 852 25.16 -11.8 10.8 68 -16.5 2.3
07:35 1023 30.21 852 25.16 -11.7 10.9 68 -16.5 2.3
07:40 1022 30.18 852 25.16 -11.3 11.7 66 -16.4 2.5
07:45 1023 30.21 852 25.16 -11 12.2 66 -16.2 2.8
07:50 1023 30.21 852 25.16 -11.5 11.3 68 -16.3 2.6
07:55 1023 30.21 852 25.16 -11.5 11.3 67 -16.4 2.5
08:00 1023 30.21 852 25.16 -11.3 11.7 67 -16.4 2.6
08:05 1022 30.18 852 25.16 -10.8 12.5 65 -16.2 2.9
08:10 1022 30.18 852 25.16 -10.2 13.6 64 -15.9 3.4
08:15 1022 30.18 852 25.16 -10 14 61 -16.1 3
08:20 1022 30.18 852 25.16 -10.9 12.3 66 -16 3.1
08:25 1022 30.18 852 25.16 -11.5 11.4 66 -16.5 2.2
08:30 1022 30.18 852 25.16 -12 10.3 68 -16.7 1.9
08:35 1022 30.18 852 25.16 -11 12.1 64 -16.5 2.3
08:40 1023 30.21 852 25.16 -10.8 12.5 64 -16.3 2.6
08:45 1023 30.21 852 25.16 -11.3 11.6 66 -16.4 2.4
08:50 1023 30.21 852 25.16 -11.5 11.3 66 -16.6 2.2
08:55 1023 30.21 852 25.16 -11.4 11.5 66 -16.5 2.4
09:00 1022 30.18 852 25.16 -11.1 12 65 -16.4 2.5
09:05 1022 30.18 852 25.16 -11.4 11.5 67 -16.4 2.5
09:10 1022 30.18 851 25.13 -11.9 10.6 69 -16.4 2.5
09:15 1022 30.18 851 25.13 -11.9 10.6 68 -16.7 1.9
09:20 1022 30.18 851 25.13 -11.9 10.5 68 -16.6 2.1
09:25 1022 30.18 851 25.13 -11.3 11.7 67 -16.3 2.7
09:30 1022 30.18 851 25.13 -10.4 13.3 62 -16.3 2.7
09:35 1022 30.18 852 25.16 -10.3 13.5 63 -16.1 3.1
09:40 1022 30.18 852 25.16 -10.5 13.2 62 -16.4 2.5
09:45 1023 30.21 852 25.16 -10.1 13.8 61 -16.3 2.6
09:50 1023 30.21 852 25.16 -9.5 14.9 59 -16.2 2.9
09:55 1022 30.18 852 25.16 -9.4 15.1 58 -16.1 3
10:00 1022 30.18 852 25.16 -9.3 15.2 58 -16.1 3
10:05 1022 30.18 852 25.16 -9.3 15.2 57 -16.5 2.4
10:10 1022 30.18 852 25.16 -10 14.1 62 -15.9 3.4
10:15 1022 30.18 851 25.13 -10 14 60 -16.3 2.7
10:20 1022 30.18 851 25.13 -9.6 14.7 59 -16.1 2.9
10:25 1022 30.18 851 25.13 -9.4 15.1 58 -16.1 3
10:30 1022 30.18 851 25.13 -9.1 15.5 57 -16.1 3
10:35 1022 30.18 851 25.13 -8.7 16.4 55 -16.2 2.9
10:40 1022 30.18 851 25.13 -8.7 16.4 57 -15.8 3.5
10:45 1022 30.18 851 25.13 -8.8 16.1 57 -15.9 3.4
10:50 1022 30.18 851 25.13 -8.5 16.8 56 -15.8 3.6
10:55 1022 30.18 851 25.13 -8.3 17 55 -15.8 3.6
11:00 1022 30.18 851 25.13 -8.2 17.2 55 -15.7 3.7
11:05 1022 30.18 851 25.13 -7.8 18.1 52 -15.9 3.4
11:10 1022 30.18 851 25.13 -6.9 19.5 50 -15.7 3.8
11:15 1022 30.18 851 25.13 -6.3 20.6 49 -15.3 4.5
11:20 1022 30.18 851 25.13 -6.4 20.5 50 -15.2 4.6
11:25 1022 30.18 851 25.13 -5.9 21.3 49 -15.1 4.8
11:30 1022 30.18 851 25.13 -5.5 22.1 46 -15.3 4.5
11:35 1022 30.18 851 25.13 -5.1 22.8 47 -14.7 5.5
11:40 1022 30.18 851 25.13 -4.8 23.4 46 -14.8 5.3
11:45 1022 30.18 851 25.13 -4.5 23.9 45 -14.8 5.4
11:50 1022 30.18 851 25.13 -4.6 23.7 46 -14.5 5.8
11:55 1022 30.18 851 25.13 -5.2 22.7 48 -14.7 5.6
12:00 1022 30.18 851 25.13 -5.7 21.8 49 -14.7 5.5
12:05 1022 30.18 851 25.13 -5.8 21.6 49 -14.9 5.2
12:10 1022 30.18 851 25.13 -5.6 22 50 -14.4 6
12:15 1022 30.18 851 25.13 -5.1 22.8 47 -14.8 5.4
12:20 1022 30.18 851 25.13 -5.2 22.6 47 -14.8 5.3
12:25 1022 30.18 851 25.13 -4.9 23.1 46 -14.8 5.3
12:30 1022 30.18 851 25.13 -4.5 23.9 45 -14.8 5.3
12:35 1021 30.15 851 25.13 -4.7 23.5 46 -14.7 5.6
12:40 1021 30.15 851 25.13 -5.1 22.8 47 -14.9 5.2
12:45 1021 30.15 851 25.13 -5.5 22 48 -14.9 5.1
12:50 1021 30.15 850 25.1 -5.1 22.8 45 -15.2 4.7
12:55 1021 30.15 850 25.1 -4.8 23.4 46 -14.8 5.3
13:00 1021 30.15 850 25.1 -4.9 23.1 45 -15.2 4.6
13:05 1021 30.15 850 25.1 -5.1 22.9 46 -15.1 4.9
13:10 1021 30.15 850 25.1 -5.4 22.3 47 -15.1 4.9
13:15 1021 30.15 850 25.1 -5.5 22.1 48 -14.8 5.4
13:20 1021 30.15 850 25.1 -5.6 21.9 48 -15.1 4.8
13:25 1021 30.15 850 25.1 -5.5 22.1 47 -15 5
13:30 1021 30.15 850 25.1 -5.5 22.2 46 -15.2 4.6
13:35 1021 30.15 850 25.1 -5.6 21.9 48 -15 5
13:40 1021 30.15 850 25.1 -5.6 21.9 47 -15.2 4.7
13:45 1020 30.12 850 25.1 -5.3 22.5 46 -15.1 4.8
13:50 1020 30.12 850 25.1 -4.5 24 45 -14.8 5.4
13:55 1020 30.12 849 25.07 -4 24.8 42 -15.2 4.6
14:00 1020 30.12 850 25.1 -4 24.7 41 -15.4 4.2
14:05 1020 30.12 850 25.1 -3.6 25.5 41 -15 4.9
14:10 1020 30.12 849 25.07 -3.9 25 42 -15.2 4.7
14:15 1020 30.12 849 25.07 -3.8 25.1 41 -15.3 4.5
14:20 1020 30.12 849 25.07 -3.3 26.1 40 -15 5
14:25 1020 30.12 849 25.07 -3.2 26.2 41 -14.7 5.5
14:30 1020 30.12 849 25.07 -3.4 25.9 41 -15 5.1
14:35 1020 30.12 849 25.07 -3.5 25.7 41 -14.9 5.2
14:40 1020 30.12 849 25.07 -3.7 25.3 41 -15 4.9
14:45 1020 30.12 849 25.07 -4 24.9 43 -14.9 5.2
14:50 1020 30.12 849 25.07 -4.2 24.4 42 -15.3 4.5
14:55 1020 30.12 849 25.07 -4.1 24.6 43 -15 5
15:00 1020 30.12 849 25.07 -4.2 24.4 44 -14.8 5.3
15:05 1020 30.12 849 25.07 -4.6 23.7 43 -15.5 4.1
15:10 1020 30.12 849 25.07 -4.3 24.2 43 -15.1 4.8
15:15 1020 30.12 849 25.07 -3.7 25.4 40 -15.4 4.3
15:20 1020 30.12 849 25.07 -3.7 25.4 40 -15.4 4.3
15:25 1020 30.12 849 25.07 -3.6 25.5 39 -15.7 3.7
15:30 1020 30.12 849 25.07 -3.5 25.7 39 -15.6 3.8
15:35 1020 30.12 849 25.07 -3.9 25.1 40 -15.6 3.9
15:40 1020 30.12 849 25.07 -3.7 25.4 39 -15.8 3.5
15:45 1020 30.12 849 25.07 -3.7 25.3 39 -15.8 3.6
15:50 1020 30.12 849 25.07 -3.3 26 36 -16.3 2.6
15:55 1020 30.12 849 25.07 -3.3 26.1 36 -16.3 2.7
16:00 1020 30.12 849 25.07 -3.1 26.4 36 -16.3 2.7
16:05 1020 30.12 849 25.07 -3.3 26.1 38 -15.6 3.9
16:10 1020 30.12 849 25.07 -3.1 26.4 37 -15.8 3.6
16:15 1020 30.12 849 25.07 -3 26.6 38 -15.4 4.3
16:20 1020 30.12 849 25.07 -3 26.6 37 -15.6 3.8
16:25 1020 30.12 849 25.07 -3 26.6 37 -15.8 3.6
16:30 1020 30.12 849 25.07 -3.1 26.5 38 -15.5 4
16:35 1020 30.12 849 25.07 -3.1 26.3 36 -16.2 2.8
16:40 1020 30.12 849 25.07 -3 26.7 37 -15.9 3.4
16:45 1020 30.12 849 25.07 -3.3 26.1 39 -15.5 4.1
16:50 1020 30.12 849 25.07 -3.2 26.2 39 -15.2 4.6
16:55 1020 30.12 849 25.07 -3.2 26.3 38 -15.5 4
17:00 1020 30.12 849 25.07 -2.8 27 37 -15.7 3.7
17:05 1020 30.12 849 25.07 -2.9 26.7 39 -15.1 4.9
17:10 1020 30.12 849 25.07 -3.3 26 41 -14.8 5.3
17:15 1020 30.12 849 25.07 -3.4 25.8 41 -14.9 5.3
17:20 1020 30.12 849 25.07 -3.7 25.4 41 -15 4.9
17:25 1020 30.12 849 25.07 -3.7 25.4 40 -15.4 4.3
17:30 1020 30.12 849 25.07 -3.8 25.2 40 -15.6 3.9
17:35 1020 30.12 849 25.07 -3.8 25.2 39 -15.8 3.6
17:40 1020 30.12 849 25.07 -4 24.7 41 -15.5 4.1
17:45 1020 30.12 849 25.07 -4.7 23.6 48 -14.2 6.5
17:50 1020 30.12 849 25.07 -5.2 22.7 50 -14.2 6.5
17:55 1020 30.12 849 25.07 -5.6 21.9 51 -14.2 6.5
18:00 1020 30.12 849 25.07 -6.1 21 52 -14.4 6.1
18:05 1020 30.12 849 25.07 -6.4 20.6 52 -14.7 5.6
18:10 1020 30.12 849 25.07 -6.6 20.1 53 -14.6 5.7
18:15 1020 30.12 849 25.07 -6.8 19.7 53 -14.9 5.1
18:20 1020 30.12 849 25.07 -6.9 19.6 53 -14.9 5.1
18:25 1020 30.12 849 25.07 -6.8 19.7 52 -15.2 4.7
18:30 1020 30.12 849 25.07 -6.7 20 52 -15.1 4.8
18:35 1020 30.12 849 25.07 -6.6 20.1 51 -15.2 4.6
18:40 1020 30.12 849 25.07 -6.4 20.4 53 -14.6 5.7
18:45 1020 30.12 849 25.07 -6.4 20.4 52 -14.7 5.6
18:50 1020 30.12 849 25.07 -6.6 20.1 52 -15 5.1
18:55 1020 30.12 849 25.07 -6.8 19.8 52 -15.2 4.6
19:00 1020 30.12 850 25.1 -6.9 19.5 56 -14.2 6.4
19:05 1020 30.12 850 25.1 -7.5 18.4 59 -14.2 6.4
19:10 1020 30.12 850 25.1 -7.8 18 60 -14.3 6.2
19:15 1021 30.15 850 25.1 -8.1 17.5 61 -14.4 6.1
19:20 1021 30.15 850 25.1 -8.5 16.6 63 -14.3 6.2
19:25 1021 30.15 850 25.1 -8.7 16.4 63 -14.6 5.8
19:30 1021 30.15 850 25.1 -8.8 16.2 62 -14.9 5.2
19:35 1021 30.15 850 25.1 -8.9 16 62 -15 5.1
19:40 1021 30.15 850 25.1 -9.2 15.5 63 -14.9 5.2
19:45 1021 30.15 850 25.1 -9.7 14.5 64 -15.3 4.4
19:50 1021 30.15 850 25.1 -10.2 13.7 67 -15.3 4.5
19:55 1021 30.15 850 25.1 -10.4 13.3 67 -15.4 4.4
20:00 1021 30.15 850 25.1 -10.6 13 67 -15.5 4.1
20:05 1021 30.15 850 25.1 -10.6 13 68 -15.4 4.3
20:10 1021 30.15 850 25.1 -10.3 13.4 66 -15.5 4.1
20:15 1021 30.15 850 25.1 -10 14 65 -15.4 4.4
20:20 1021 30.15 850 25.1 -9.9 14.1 65 -15.3 4.4
20:25 1021 30.15 850 25.1 -10 14 65 -15.4 4.3
20:30 1021 30.15 850 25.1 -10 14 65 -15.4 4.3
20:35 1021 30.15 850 25.1 -10.2 13.6 66 -15.4 4.2
20:40 1021 30.15 850 25.1 -10.9 12.4 68 -15.7 3.7
20:45 1021 30.15 850 25.1 -11.5 11.4 69 -16 3.2
20:50 1021 30.15 850 25.1 -11.4 11.5 69 -15.9 3.3
20:55 1021 30.15 850 25.1 -11.3 11.6 70 -15.7 3.7
21:00 1021 30.15 850 25.1 -10.6 13 66 -15.7 3.8
21:05 1021 30.15 850 25.1 -10 14.1 65 -15.3 4.4
21:10 1021 30.15 850 25.1 -9.8 14.4 66 -15.1 4.9
21:15 1021 30.15 851 25.13 -9.9 14.3 65 -15.2 4.6
21:20 1021 30.15 850 25.1 -10 13.9 67 -15.1 4.9
21:25 1021 30.15 851 25.13 -10.1 13.9 67 -15.2 4.7
21:30 1021 30.15 851 25.13 -10.1 13.8 67 -15.2 4.7
21:35 1022 30.18 851 25.13 -10.4 13.2 67 -15.5 4.1
21:40 1021 30.15 851 25.13 -11 12.2 68 -15.9 3.4
21:45 1021 30.15 851 25.13 -11.1 12 68 -15.8 3.5
21:50 1021 30.15 851 25.13 -11.3 11.7 68 -16.1 3
21:55 1021 30.15 851 25.13 -11 12.2 67 -15.9 3.3
22:00 1021 30.15 851 25.13 -10.2 13.6 65 -15.6 3.8
22:05 1022 30.18 851 25.13 -10.2 13.7 67 -15.2 4.6
22:10 1021 30.15 851 25.13 -9.8 14.4 65 -15.2 4.6
22:15 1022 30.18 851 25.13 -9.7 14.6 65 -15.1 4.9
22:20 1022 30.18 851 25.13 -9.4 15.1 66 -14.7 5.6
22:25 1022 30.18 851 25.13 -8.6 16.5 63 -14.5 5.8
22:30 1022 30.18 851 25.13 -8.8 16.3 63 -14.6 5.7
22:35 1022 30.18 851 25.13 -9.3 15.2 65 -14.8 5.4
22:40 1022 30.18 851 25.13 -9.6 14.6 66 -14.9 5.1
22:45 1022 30.18 851 25.13 -9.9 14.2 65 -15.3 4.5
22:50 1022 30.18 851 25.13 -9.9 14.2 66 -15.1 4.8
22:55 1022 30.18 851 25.13 -9.4 15.1 64 -15 5
23:00 1022 30.18 851 25.13 -9 15.8 62 -15 5
23:05 1022 30.18 851 25.13 -9.4 15.1 64 -14.9 5.1
23:10 1022 30.18 851 25.13 -10.3 13.5 65 -15.6 3.9
23:15 1022 30.18 851 25.13 -10.4 13.3 66 -15.6 3.9
23:20 1022 30.18 851 25.13 -10.2 13.6 66 -15.3 4.4
23:25 1022 30.18 851 25.13 -9.3 15.2 63 -15.1 4.8
23:30 1022 30.18 851 25.13 -9 15.8 63 -14.9 5.2
23:35 1022 30.18 851 25.13 -8.5 16.7 61 -14.8 5.4
23:40 1022 30.18 852 25.16 -8.6 16.5 61 -14.8 5.4
23:45 1022 30.18 852 25.16 -8.9 16 63 -14.8 5.4
23:50 1022 30.18 852 25.16 -8.8 16.2 62 -14.9 5.2
23:55 1022 30.18 852 25.16 -8.7 16.3 61 -14.9 5.2
24:00 1023 30.21 852 25.16 -8.7 16.3 61 -14.9 5.1